sensor_id;sensor_type;location;lat;lon;timestamp;temperature;humidity
24560;DHT22;12727;49.934;8.656;2023-07-29T00:01:35;18.70;99.90
24560;DHT22;12727;49.934;8.656;2023-07-29T00:04:02;18.70;99.90
24560;DHT22;12727;49.934;8.656;2023-07-29T00:06:27;18.70;99.90
24560;DHT22;12727;49.934;8.656;2023-07-29T00:08:53;18.70;99.90
24560;DHT22;12727;49.934;8.656;2023-07-29T00:11:19;18.70;99.90
24560;DHT22;12727;49.934;8.656;2023-07-29T00:13:44;18.70;99.90
24560;DHT22;12727;49.934;8.656;2023-07-29T00:16:10;18.70;99.90
24560;DHT22;12727;49.934;8.656;2023-07-29T00:18:35;18.80;99.90
24560;DHT22;12727;49.934;8.656;2023-07-29T00:21:01;18.80;99.90
24560;DHT22;12727;49.934;8.656;2023-07-29T00:23:28;18.90;99.90
24560;DHT22;12727;49.934;8.656;2023-07-29T00:25:54;18.90;99.90
24560;DHT22;12727;49.934;8.656;2023-07-29T00:28:19;18.90;99.90
24560;DHT22;12727;49.934;8.656;2023-07-29T00:30:45;18.90;99.90
24560;DHT22;12727;49.934;8.656;2023-07-29T00:33:11;18.90;99.90
24560;DHT22;12727;49.934;8.656;2023-07-29T00:35:36;19.00;99.90
24560;DHT22;12727;49.934;8.656;2023-07-29T00:38:02;19.00;99.90
24560;DHT22;12727;49.934;8.656;2023-07-29T00:40:28;19.00;99.90
24560;DHT22;12727;49.934;8.656;2023-07-29T00:42:54;19.00;99.90
24560;DHT22;12727;49.934;8.656;2023-07-29T00:45:20;19.00;99.90
24560;DHT22;12727;49.934;8.656;2023-07-29T00:47:47;19.00;99.90
24560;DHT22;12727;49.934;8.656;2023-07-29T00:50:15;19.10;99.90
24560;DHT22;12727;49.934;8.656;2023-07-29T00:52:41;19.00;99.90
24560;DHT22;12727;49.934;8.656;2023-07-29T00:55:07;19.10;99.90
24560;DHT22;12727;49.934;8.656;2023-07-29T00:57:33;19.00;99.90
24560;DHT22;12727;49.934;8.656;2023-07-29T00:59:59;19.10;99.90
24560;DHT22;12727;49.934;8.656;2023-07-29T01:02:26;19.00;99.90
24560;DHT22;12727;49.934;8.656;2023-07-29T01:04:56;19.00;99.90
24560;DHT22;12727;49.934;8.656;2023-07-29T01:07:33;19.10;99.90
24560;DHT22;12727;49.934;8.656;2023-07-29T01:10:10;19.00;99.90
24560;DHT22;12727;49.934;8.656;2023-07-29T01:12:52;19.10;99.90
24560;DHT22;12727;49.934;8.656;2023-07-29T01:15:24;19.00;99.90
24560;DHT22;12727;49.934;8.656;2023-07-29T01:17:54;19.00;99.90
24560;DHT22;12727;49.934;8.656;2023-07-29T01:20:21;19.00;99.90
24560;DHT22;12727;49.934;8.656;2023-07-29T01:22:49;19.10;99.90
24560;DHT22;12727;49.934;8.656;2023-07-29T01:25:15;19.10;99.90
24560;DHT22;12727;49.934;8.656;2023-07-29T01:27:42;19.10;99.90
24560;DHT22;12727;49.934;8.656;2023-07-29T01:30:08;19.10;99.90
24560;DHT22;12727;49.934;8.656;2023-07-29T01:33:05;19.10;99.90
24560;DHT22;12727;49.934;8.656;2023-07-29T01:35:50;19.00;99.90
24560;DHT22;12727;49.934;8.656;2023-07-29T01:38:30;19.00;99.90
24560;DHT22;12727;49.934;8.656;2023-07-29T01:41:00;19.10;99.90
24560;DHT22;12727;49.934;8.656;2023-07-29T01:43:28;19.00;99.90
24560;DHT22;12727;49.934;8.656;2023-07-29T01:45:54;19.10;99.90
24560;DHT22;12727;49.934;8.656;2023-07-29T01:48:20;19.10;99.90
24560;DHT22;12727;49.934;8.656;2023-07-29T01:50:45;19.20;99.90
24560;DHT22;12727;49.934;8.656;2023-07-29T01:53:11;19.20;99.90
24560;DHT22;12727;49.934;8.656;2023-07-29T01:55:36;19.20;99.90
24560;DHT22;12727;49.934;8.656;2023-07-29T01:58:02;19.20;99.90
24560;DHT22;12727;49.934;8.656;2023-07-29T02:00:27;19.30;99.90
24560;DHT22;12727;49.934;8.656;2023-07-29T02:02:53;19.30;99.90
24560;DHT22;12727;49.934;8.656;2023-07-29T02:05:19;19.30;99.90
24560;DHT22;12727;49.934;8.656;2023-07-29T02:07:44;19.30;99.90
24560;DHT22;12727;49.934;8.656;2023-07-29T02:10:10;19.40;99.90
24560;DHT22;12727;49.934;8.656;2023-07-29T02:12:35;19.40;99.90
24560;DHT22;12727;49.934;8.656;2023-07-29T02:15:01;19.40;99.90
24560;DHT22;12727;49.934;8.656;2023-07-29T02:17:26;19.40;99.90
24560;DHT22;12727;49.934;8.656;2023-07-29T02:19:52;19.40;99.90
24560;DHT22;12727;49.934;8.656;2023-07-29T02:22:18;19.40;99.90
24560;DHT22;12727;49.934;8.656;2023-07-29T02:24:44;19.50;99.90
24560;DHT22;12727;49.934;8.656;2023-07-29T02:27:10;19.50;99.90
24560;DHT22;12727;49.934;8.656;2023-07-29T02:29:36;19.50;99.90
24560;DHT22;12727;49.934;8.656;2023-07-29T02:32:02;19.50;99.90
24560;DHT22;12727;49.934;8.656;2023-07-29T02:34:28;19.40;99.90
24560;DHT22;12727;49.934;8.656;2023-07-29T02:36:54;19.30;99.90
24560;DHT22;12727;49.934;8.656;2023-07-29T02:39:20;19.20;99.90
24560;DHT22;12727;49.934;8.656;2023-07-29T02:41:45;19.20;99.90
24560;DHT22;12727;49.934;8.656;2023-07-29T02:44:11;19.10;99.90
24560;DHT22;12727;49.934;8.656;2023-07-29T02:46:37;19.10;99.90
24560;DHT22;12727;49.934;8.656;2023-07-29T02:49:03;19.10;99.90
24560;DHT22;12727;49.934;8.656;2023-07-29T02:51:32;19.10;99.90
24560;DHT22;12727;49.934;8.656;2023-07-29T02:53:58;18.90;99.90
24560;DHT22;12727;49.934;8.656;2023-07-29T02:56:24;18.90;99.90
24560;DHT22;12727;49.934;8.656;2023-07-29T02:58:50;18.90;99.90
24560;DHT22;12727;49.934;8.656;2023-07-29T03:01:18;18.90;99.90
24560;DHT22;12727;49.934;8.656;2023-07-29T03:03:44;18.80;99.90
24560;DHT22;12727;49.934;8.656;2023-07-29T03:06:12;18.80;99.90
24560;DHT22;12727;49.934;8.656;2023-07-29T03:08:38;18.80;99.90
24560;DHT22;12727;49.934;8.656;2023-07-29T03:11:08;18.80;99.90
24560;DHT22;12727;49.934;8.656;2023-07-29T03:13:34;18.80;99.90
24560;DHT22;12727;49.934;8.656;2023-07-29T03:16:11;18.80;99.90
24560;DHT22;12727;49.934;8.656;2023-07-29T03:18:37;18.80;99.90
24560;DHT22;12727;49.934;8.656;2023-07-29T03:21:04;18.80;99.90
24560;DHT22;12727;49.934;8.656;2023-07-29T03:23:31;18.70;99.90
24560;DHT22;12727;49.934;8.656;2023-07-29T03:25:58;18.70;99.90
24560;DHT22;12727;49.934;8.656;2023-07-29T03:28:28;18.60;99.90
24560;DHT22;12727;49.934;8.656;2023-07-29T03:30:57;18.50;99.90
24560;DHT22;12727;49.934;8.656;2023-07-29T03:33:24;18.50;99.90
24560;DHT22;12727;49.934;8.656;2023-07-29T03:35:51;18.50;99.90
24560;DHT22;12727;49.934;8.656;2023-07-29T03:38:16;18.40;99.90
24560;DHT22;12727;49.934;8.656;2023-07-29T03:40:42;18.40;99.90
24560;DHT22;12727;49.934;8.656;2023-07-29T03:43:08;18.30;99.90
24560;DHT22;12727;49.934;8.656;2023-07-29T03:45:34;18.30;99.90
24560;DHT22;12727;49.934;8.656;2023-07-29T03:48:01;18.30;99.90
24560;DHT22;12727;49.934;8.656;2023-07-29T03:50:28;18.30;99.90
24560;DHT22;12727;49.934;8.656;2023-07-29T03:52:54;18.30;99.90
24560;DHT22;12727;49.934;8.656;2023-07-29T03:55:19;18.30;99.90
24560;DHT22;12727;49.934;8.656;2023-07-29T03:57:46;18.30;99.90
24560;DHT22;12727;49.934;8.656;2023-07-29T04:00:11;18.20;99.90
24560;DHT22;12727;49.934;8.656;2023-07-29T04:02:37;18.30;99.90
24560;DHT22;12727;49.934;8.656;2023-07-29T04:05:04;18.20;99.90
24560;DHT22;12727;49.934;8.656;2023-07-29T04:07:30;18.20;99.90
24560;DHT22;12727;49.934;8.656;2023-07-29T04:09:56;18.20;99.90
24560;DHT22;12727;49.934;8.656;2023-07-29T04:12:22;18.20;99.90
24560;DHT22;12727;49.934;8.656;2023-07-29T04:14:48;18.30;99.90
24560;DHT22;12727;49.934;8.656;2023-07-29T04:17:14;18.30;99.90
24560;DHT22;12727;49.934;8.656;2023-07-29T04:19:39;18.30;99.90
24560;DHT22;12727;49.934;8.656;2023-07-29T04:22:05;18.30;99.90
24560;DHT22;12727;49.934;8.656;2023-07-29T04:24:31;18.30;99.90
24560;DHT22;12727;49.934;8.656;2023-07-29T04:26:57;18.30;99.90
24560;DHT22;12727;49.934;8.656;2023-07-29T04:29:23;18.30;99.90
24560;DHT22;12727;49.934;8.656;2023-07-29T04:31:49;18.30;99.90
24560;DHT22;12727;49.934;8.656;2023-07-29T04:34:15;18.30;99.90
24560;DHT22;12727;49.934;8.656;2023-07-29T04:36:41;18.40;99.90
24560;DHT22;12727;49.934;8.656;2023-07-29T04:39:06;18.50;99.90
24560;DHT22;12727;49.934;8.656;2023-07-29T04:41:32;18.50;99.90
24560;DHT22;12727;49.934;8.656;2023-07-29T04:43:57;18.50;99.90
24560;DHT22;12727;49.934;8.656;2023-07-29T04:46:23;18.60;99.90
24560;DHT22;12727;49.934;8.656;2023-07-29T04:48:48;18.60;99.90
24560;DHT22;12727;49.934;8.656;2023-07-29T04:51:14;18.60;99.90
24560;DHT22;12727;49.934;8.656;2023-07-29T04:53:40;18.60;99.90
24560;DHT22;12727;49.934;8.656;2023-07-29T04:56:05;18.70;99.90
24560;DHT22;12727;49.934;8.656;2023-07-29T04:58:31;18.80;99.90
24560;DHT22;12727;49.934;8.656;2023-07-29T05:01:00;18.80;99.90
24560;DHT22;12727;49.934;8.656;2023-07-29T05:03:26;18.90;99.90
24560;DHT22;12727;49.934;8.656;2023-07-29T05:05:51;18.90;99.90
24560;DHT22;12727;49.934;8.656;2023-07-29T05:08:19;18.90;99.90
24560;DHT22;12727;49.934;8.656;2023-07-29T05:10:44;18.90;99.90
24560;DHT22;12727;49.934;8.656;2023-07-29T05:13:13;18.90;99.90
24560;DHT22;12727;49.934;8.656;2023-07-29T05:15:39;19.00;99.90
24560;DHT22;12727;49.934;8.656;2023-07-29T05:18:04;19.00;99.90
24560;DHT22;12727;49.934;8.656;2023-07-29T05:20:30;19.10;99.90
24560;DHT22;12727;49.934;8.656;2023-07-29T05:22:55;19.10;99.90
24560;DHT22;12727;49.934;8.656;2023-07-29T05:25:21;19.20;99.90
24560;DHT22;12727;49.934;8.656;2023-07-29T05:27:47;19.20;99.90
24560;DHT22;12727;49.934;8.656;2023-07-29T05:30:12;19.20;99.90
24560;DHT22;12727;49.934;8.656;2023-07-29T05:32:38;19.30;99.90
24560;DHT22;12727;49.934;8.656;2023-07-29T05:35:03;19.40;99.90
24560;DHT22;12727;49.934;8.656;2023-07-29T05:37:29;19.40;99.90
24560;DHT22;12727;49.934;8.656;2023-07-29T05:39:55;19.40;99.90
24560;DHT22;12727;49.934;8.656;2023-07-29T05:42:20;19.40;99.90
24560;DHT22;12727;49.934;8.656;2023-07-29T05:44:46;19.50;99.90
24560;DHT22;12727;49.934;8.656;2023-07-29T05:47:11;19.40;99.90
24560;DHT22;12727;49.934;8.656;2023-07-29T05:49:37;19.50;99.90
24560;DHT22;12727;49.934;8.656;2023-07-29T05:52:03;19.50;99.90
24560;DHT22;12727;49.934;8.656;2023-07-29T05:54:28;19.50;99.90
24560;DHT22;12727;49.934;8.656;2023-07-29T05:56:54;19.50;99.90
24560;DHT22;12727;49.934;8.656;2023-07-29T05:59:19;19.60;99.90
24560;DHT22;12727;49.934;8.656;2023-07-29T06:01:45;19.60;99.90
24560;DHT22;12727;49.934;8.656;2023-07-29T06:04:10;19.60;99.90
24560;DHT22;12727;49.934;8.656;2023-07-29T06:06:36;19.60;99.90
24560;DHT22;12727;49.934;8.656;2023-07-29T06:09:01;19.70;99.90
24560;DHT22;12727;49.934;8.656;2023-07-29T06:11:27;19.60;99.90
24560;DHT22;12727;49.934;8.656;2023-07-29T06:13:53;19.60;99.90
24560;DHT22;12727;49.934;8.656;2023-07-29T06:16:18;19.60;99.90
24560;DHT22;12727;49.934;8.656;2023-07-29T06:18:45;19.60;99.90
24560;DHT22;12727;49.934;8.656;2023-07-29T06:21:10;19.70;99.90
24560;DHT22;12727;49.934;8.656;2023-07-29T06:23:42;19.60;99.90
24560;DHT22;12727;49.934;8.656;2023-07-29T06:26:08;19.70;99.90
24560;DHT22;12727;49.934;8.656;2023-07-29T06:28:34;19.70;99.90
24560;DHT22;12727;49.934;8.656;2023-07-29T06:30:59;19.70;99.90
24560;DHT22;12727;49.934;8.656;2023-07-29T06:33:25;19.70;99.90
24560;DHT22;12727;49.934;8.656;2023-07-29T06:35:50;19.70;99.90
24560;DHT22;12727;49.934;8.656;2023-07-29T06:38:16;19.70;99.90
24560;DHT22;12727;49.934;8.656;2023-07-29T06:40:49;19.70;99.90
24560;DHT22;12727;49.934;8.656;2023-07-29T06:43:15;19.70;99.90
24560;DHT22;12727;49.934;8.656;2023-07-29T06:45:41;19.70;99.90
24560;DHT22;12727;49.934;8.656;2023-07-29T06:48:06;19.70;99.90
24560;DHT22;12727;49.934;8.656;2023-07-29T06:50:32;19.70;99.90
24560;DHT22;12727;49.934;8.656;2023-07-29T06:52:58;19.60;99.90
24560;DHT22;12727;49.934;8.656;2023-07-29T06:55:23;19.60;99.90
24560;DHT22;12727;49.934;8.656;2023-07-29T06:57:49;19.70;99.90
24560;DHT22;12727;49.934;8.656;2023-07-29T07:00:14;19.60;99.90
24560;DHT22;12727;49.934;8.656;2023-07-29T07:02:40;19.60;99.90
24560;DHT22;12727;49.934;8.656;2023-07-29T07:05:07;19.50;99.90
24560;DHT22;12727;49.934;8.656;2023-07-29T07:07:32;19.50;99.90
24560;DHT22;12727;49.934;8.656;2023-07-29T07:09:58;19.40;99.90
24560;DHT22;12727;49.934;8.656;2023-07-29T07:12:23;19.40;99.90
24560;DHT22;12727;49.934;8.656;2023-07-29T07:14:49;19.30;99.90
24560;DHT22;12727;49.934;8.656;2023-07-29T07:17:15;19.20;99.90
24560;DHT22;12727;49.934;8.656;2023-07-29T07:19:40;19.10;99.90
24560;DHT22;12727;49.934;8.656;2023-07-29T07:22:06;19.10;99.90
24560;DHT22;12727;49.934;8.656;2023-07-29T07:24:31;19.10;99.90
24560;DHT22;12727;49.934;8.656;2023-07-29T07:26:57;19.10;99.90
24560;DHT22;12727;49.934;8.656;2023-07-29T07:29:22;19.10;99.90
24560;DHT22;12727;49.934;8.656;2023-07-29T07:31:53;19.10;99.90
24560;DHT22;12727;49.934;8.656;2023-07-29T07:34:19;19.10;99.90
24560;DHT22;12727;49.934;8.656;2023-07-29T07:36:45;19.00;99.90
24560;DHT22;12727;49.934;8.656;2023-07-29T07:39:10;19.00;99.90
24560;DHT22;12727;49.934;8.656;2023-07-29T07:41:36;19.00;99.90
24560;DHT22;12727;49.934;8.656;2023-07-29T07:44:02;19.00;99.90
24560;DHT22;12727;49.934;8.656;2023-07-29T07:46:28;19.00;99.90
24560;DHT22;12727;49.934;8.656;2023-07-29T07:48:54;19.00;99.90
24560;DHT22;12727;49.934;8.656;2023-07-29T07:51:19;19.00;99.90
24560;DHT22;12727;49.934;8.656;2023-07-29T07:53:45;19.10;99.90
24560;DHT22;12727;49.934;8.656;2023-07-29T07:56:10;19.00;99.90
24560;DHT22;12727;49.934;8.656;2023-07-29T07:58:36;19.00;99.90
24560;DHT22;12727;49.934;8.656;2023-07-29T08:01:06;19.10;99.90
24560;DHT22;12727;49.934;8.656;2023-07-29T08:03:32;19.10;99.90
24560;DHT22;12727;49.934;8.656;2023-07-29T08:05:58;19.10;99.90
24560;DHT22;12727;49.934;8.656;2023-07-29T08:08:25;19.20;99.90
24560;DHT22;12727;49.934;8.656;2023-07-29T08:10:52;19.20;99.90
24560;DHT22;12727;49.934;8.656;2023-07-29T08:13:18;19.30;99.90
24560;DHT22;12727;49.934;8.656;2023-07-29T08:15:49;19.40;99.90
24560;DHT22;12727;49.934;8.656;2023-07-29T08:18:15;19.50;99.90
24560;DHT22;12727;49.934;8.656;2023-07-29T08:20:41;19.50;99.90
24560;DHT22;12727;49.934;8.656;2023-07-29T08:23:07;19.70;99.90
24560;DHT22;12727;49.934;8.656;2023-07-29T08:25:33;19.80;99.90
24560;DHT22;12727;49.934;8.656;2023-07-29T08:27:58;20.00;99.90
24560;DHT22;12727;49.934;8.656;2023-07-29T08:30:24;20.40;99.90
24560;DHT22;12727;49.934;8.656;2023-07-29T08:32:49;21.00;99.90
24560;DHT22;12727;49.934;8.656;2023-07-29T08:35:15;21.70;99.90
24560;DHT22;12727;49.934;8.656;2023-07-29T08:37:41;21.90;99.90
24560;DHT22;12727;49.934;8.656;2023-07-29T08:40:07;22.00;99.90
24560;DHT22;12727;49.934;8.656;2023-07-29T08:42:34;22.00;99.90
24560;DHT22;12727;49.934;8.656;2023-07-29T08:45:08;22.10;99.90
24560;DHT22;12727;49.934;8.656;2023-07-29T08:47:34;22.00;99.90
24560;DHT22;12727;49.934;8.656;2023-07-29T08:50:02;22.00;99.90
24560;DHT22;12727;49.934;8.656;2023-07-29T08:52:29;21.90;99.90
24560;DHT22;12727;49.934;8.656;2023-07-29T08:54:55;21.80;99.90
24560;DHT22;12727;49.934;8.656;2023-07-29T08:57:22;21.80;99.90
24560;DHT22;12727;49.934;8.656;2023-07-29T08:59:48;21.80;99.90
24560;DHT22;12727;49.934;8.656;2023-07-29T09:02:14;21.80;99.90
24560;DHT22;12727;49.934;8.656;2023-07-29T09:04:40;21.80;99.90
24560;DHT22;12727;49.934;8.656;2023-07-29T09:07:06;21.70;99.90
24560;DHT22;12727;49.934;8.656;2023-07-29T09:09:32;21.90;99.90
24560;DHT22;12727;49.934;8.656;2023-07-29T09:11:58;22.50;99.90
24560;DHT22;12727;49.934;8.656;2023-07-29T09:14:24;22.90;99.90
24560;DHT22;12727;49.934;8.656;2023-07-29T09:16:50;23.10;99.90
24560;DHT22;12727;49.934;8.656;2023-07-29T09:19:16;23.20;99.90
24560;DHT22;12727;49.934;8.656;2023-07-29T09:21:42;23.10;99.90
24560;DHT22;12727;49.934;8.656;2023-07-29T09:24:08;22.80;99.90
24560;DHT22;12727;49.934;8.656;2023-07-29T09:26:34;23.00;99.90
24560;DHT22;12727;49.934;8.656;2023-07-29T09:29:01;23.50;99.90
24560;DHT22;12727;49.934;8.656;2023-07-29T09:31:28;24.40;99.90
24560;DHT22;12727;49.934;8.656;2023-07-29T09:34:02;24.60;99.90
24560;DHT22;12727;49.934;8.656;2023-07-29T09:36:31;24.20;99.90
24560;DHT22;12727;49.934;8.656;2023-07-29T09:38:57;24.10;99.90
24560;DHT22;12727;49.934;8.656;2023-07-29T09:41:25;24.10;99.90
24560;DHT22;12727;49.934;8.656;2023-07-29T09:44:00;24.10;99.90
24560;DHT22;12727;49.934;8.656;2023-07-29T09:46:35;24.10;99.90
24560;DHT22;12727;49.934;8.656;2023-07-29T09:49:03;24.00;99.90
24560;DHT22;12727;49.934;8.656;2023-07-29T09:51:29;24.10;99.90
24560;DHT22;12727;49.934;8.656;2023-07-29T09:53:55;24.00;99.90
24560;DHT22;12727;49.934;8.656;2023-07-29T09:56:25;23.80;99.90
24560;DHT22;12727;49.934;8.656;2023-07-29T09:58:52;23.70;99.90
24560;DHT22;12727;49.934;8.656;2023-07-29T10:01:18;23.90;99.90
24560;DHT22;12727;49.934;8.656;2023-07-29T10:03:44;24.30;99.90
24560;DHT22;12727;49.934;8.656;2023-07-29T10:06:10;24.90;99.90
24560;DHT22;12727;49.934;8.656;2023-07-29T10:08:37;25.70;99.90
24560;DHT22;12727;49.934;8.656;2023-07-29T10:11:08;26.40;99.90
24560;DHT22;12727;49.934;8.656;2023-07-29T10:13:34;27.00;99.90
24560;DHT22;12727;49.934;8.656;2023-07-29T10:16:00;27.50;99.90
24560;DHT22;12727;49.934;8.656;2023-07-29T10:18:33;27.70;99.60
24560;DHT22;12727;49.934;8.656;2023-07-29T10:21:00;27.90;97.70
24560;DHT22;12727;49.934;8.656;2023-07-29T10:23:28;28.30;97.10
24560;DHT22;12727;49.934;8.656;2023-07-29T10:26:04;28.30;96.30
24560;DHT22;12727;49.934;8.656;2023-07-29T10:28:31;28.10;95.80
24560;DHT22;12727;49.934;8.656;2023-07-29T10:30:58;28.20;95.90
24560;DHT22;12727;49.934;8.656;2023-07-29T10:33:24;28.50;95.20
24560;DHT22;12727;49.934;8.656;2023-07-29T10:35:50;28.40;93.10
24560;DHT22;12727;49.934;8.656;2023-07-29T10:38:17;28.10;93.30
24560;DHT22;12727;49.934;8.656;2023-07-29T10:40:46;27.00;93.70
24560;DHT22;12727;49.934;8.656;2023-07-29T10:43:34;26.70;94.00
24560;DHT22;12727;49.934;8.656;2023-07-29T10:46:16;26.60;94.30
24560;DHT22;12727;49.934;8.656;2023-07-29T10:48:53;25.80;95.20
24560;DHT22;12727;49.934;8.656;2023-07-29T10:51:45;25.40;96.70
24560;DHT22;12727;49.934;8.656;2023-07-29T10:54:12;25.20;97.20
24560;DHT22;12727;49.934;8.656;2023-07-29T10:56:44;24.90;97.80
24560;DHT22;12727;49.934;8.656;2023-07-29T11:01:39;24.30;99.00
24560;DHT22;12727;49.934;8.656;2023-07-29T11:12:47;24.40;99.90
24560;DHT22;12727;49.934;8.656;2023-07-29T11:15:25;26.00;98.60
24560;DHT22;12727;49.934;8.656;2023-07-29T11:20:26;27.90;95.50
24560;DHT22;12727;49.934;8.656;2023-07-29T11:22:53;28.30;94.40
24560;DHT22;12727;49.934;8.656;2023-07-29T11:25:21;28.70;93.70
24560;DHT22;12727;49.934;8.656;2023-07-29T11:27:47;28.90;92.50
24560;DHT22;12727;49.934;8.656;2023-07-29T11:30:15;28.50;92.50
24560;DHT22;12727;49.934;8.656;2023-07-29T11:32:42;27.90;91.80
24560;DHT22;12727;49.934;8.656;2023-07-29T11:35:16;27.20;91.80
24560;DHT22;12727;49.934;8.656;2023-07-29T11:37:47;26.70;91.30
24560;DHT22;12727;49.934;8.656;2023-07-29T11:40:17;26.60;91.90
24560;DHT22;12727;49.934;8.656;2023-07-29T11:42:44;26.40;91.90
24560;DHT22;12727;49.934;8.656;2023-07-29T11:45:11;26.30;92.60
24560;DHT22;12727;49.934;8.656;2023-07-29T11:47:36;26.30;91.80
24560;DHT22;12727;49.934;8.656;2023-07-29T11:50:05;26.40;91.50
24560;DHT22;12727;49.934;8.656;2023-07-29T11:52:32;26.70;90.10
24560;DHT22;12727;49.934;8.656;2023-07-29T11:55:00;26.70;82.90
24560;DHT22;12727;49.934;8.656;2023-07-29T11:57:27;26.70;83.90
24560;DHT22;12727;49.934;8.656;2023-07-29T11:59:53;26.80;79.80
24560;DHT22;12727;49.934;8.656;2023-07-29T12:02:20;26.80;81.70
24560;DHT22;12727;49.934;8.656;2023-07-29T12:04:47;26.90;79.30
24560;DHT22;12727;49.934;8.656;2023-07-29T12:07:13;26.90;80.20
24560;DHT22;12727;49.934;8.656;2023-07-29T12:09:39;26.90;77.30
24560;DHT22;12727;49.934;8.656;2023-07-29T12:12:06;26.80;77.00
24560;DHT22;12727;49.934;8.656;2023-07-29T12:14:32;26.60;76.70
24560;DHT22;12727;49.934;8.656;2023-07-29T12:17:06;26.20;77.70
24560;DHT22;12727;49.934;8.656;2023-07-29T12:19:38;26.30;78.30
24560;DHT22;12727;49.934;8.656;2023-07-29T12:22:05;26.40;76.00
24560;DHT22;12727;49.934;8.656;2023-07-29T12:24:33;26.50;79.10
24560;DHT22;12727;49.934;8.656;2023-07-29T12:26:59;26.70;76.20
24560;DHT22;12727;49.934;8.656;2023-07-29T12:29:25;26.80;76.40
24560;DHT22;12727;49.934;8.656;2023-07-29T12:32:02;26.70;75.30
24560;DHT22;12727;49.934;8.656;2023-07-29T12:34:29;26.50;74.50
24560;DHT22;12727;49.934;8.656;2023-07-29T12:36:57;26.60;74.60
24560;DHT22;12727;49.934;8.656;2023-07-29T12:39:30;26.80;75.50
24560;DHT22;12727;49.934;8.656;2023-07-29T12:41:57;26.80;75.10
24560;DHT22;12727;49.934;8.656;2023-07-29T12:44:24;26.80;74.40
24560;DHT22;12727;49.934;8.656;2023-07-29T12:46:50;26.90;74.50
24560;DHT22;12727;49.934;8.656;2023-07-29T12:49:16;26.60;73.10
24560;DHT22;12727;49.934;8.656;2023-07-29T12:51:42;26.30;71.60
24560;DHT22;12727;49.934;8.656;2023-07-29T12:54:08;26.40;72.10
24560;DHT22;12727;49.934;8.656;2023-07-29T12:56:34;26.50;71.30
24560;DHT22;12727;49.934;8.656;2023-07-29T12:59:01;26.60;71.60
24560;DHT22;12727;49.934;8.656;2023-07-29T13:01:27;26.60;71.60
24560;DHT22;12727;49.934;8.656;2023-07-29T13:03:53;26.70;71.00
24560;DHT22;12727;49.934;8.656;2023-07-29T13:06:20;26.60;70.20
24560;DHT22;12727;49.934;8.656;2023-07-29T13:08:46;26.50;69.80
24560;DHT22;12727;49.934;8.656;2023-07-29T13:11:12;26.50;69.60
24560;DHT22;12727;49.934;8.656;2023-07-29T13:13:38;26.60;69.30
24560;DHT22;12727;49.934;8.656;2023-07-29T13:16:04;26.60;69.10
24560;DHT22;12727;49.934;8.656;2023-07-29T13:18:31;26.60;67.60
24560;DHT22;12727;49.934;8.656;2023-07-29T13:20:56;26.50;66.50
24560;DHT22;12727;49.934;8.656;2023-07-29T13:23:22;26.50;67.70
24560;DHT22;12727;49.934;8.656;2023-07-29T13:25:48;26.50;68.60
24560;DHT22;12727;49.934;8.656;2023-07-29T13:28:14;26.50;68.70
24560;DHT22;12727;49.934;8.656;2023-07-29T13:30:40;26.50;66.90
24560;DHT22;12727;49.934;8.656;2023-07-29T13:33:09;26.50;67.30
24560;DHT22;12727;49.934;8.656;2023-07-29T13:35:34;26.60;67.10
24560;DHT22;12727;49.934;8.656;2023-07-29T13:38:00;26.70;67.30
24560;DHT22;12727;49.934;8.656;2023-07-29T13:40:26;26.60;66.20
24560;DHT22;12727;49.934;8.656;2023-07-29T13:42:52;26.70;67.30
24560;DHT22;12727;49.934;8.656;2023-07-29T13:45:18;26.80;65.70
24560;DHT22;12727;49.934;8.656;2023-07-29T13:47:44;26.90;65.70
24560;DHT22;12727;49.934;8.656;2023-07-29T13:50:10;26.90;65.30
24560;DHT22;12727;49.934;8.656;2023-07-29T13:52:36;26.90;64.30
24560;DHT22;12727;49.934;8.656;2023-07-29T13:55:06;26.70;63.10
24560;DHT22;12727;49.934;8.656;2023-07-29T13:57:32;26.70;64.60
24560;DHT22;12727;49.934;8.656;2023-07-29T13:59:58;26.80;65.10
24560;DHT22;12727;49.934;8.656;2023-07-29T14:02:24;26.90;64.10
24560;DHT22;12727;49.934;8.656;2023-07-29T14:04:51;26.90;62.30
24560;DHT22;12727;49.934;8.656;2023-07-29T14:07:17;26.90;62.10
24560;DHT22;12727;49.934;8.656;2023-07-29T14:09:43;27.00;62.00
24560;DHT22;12727;49.934;8.656;2023-07-29T14:12:08;27.00;61.50
24560;DHT22;12727;49.934;8.656;2023-07-29T14:14:38;27.00;62.90
24560;DHT22;12727;49.934;8.656;2023-07-29T14:17:04;26.90;64.20
24560;DHT22;12727;49.934;8.656;2023-07-29T14:19:31;27.00;63.80
24560;DHT22;12727;49.934;8.656;2023-07-29T14:21:56;27.10;65.60
24560;DHT22;12727;49.934;8.656;2023-07-29T14:24:22;27.10;64.00
24560;DHT22;12727;49.934;8.656;2023-07-29T14:26:48;27.10;63.10
24560;DHT22;12727;49.934;8.656;2023-07-29T14:29:13;27.00;63.70
24560;DHT22;12727;49.934;8.656;2023-07-29T14:31:39;26.90;63.60
24560;DHT22;12727;49.934;8.656;2023-07-29T14:34:05;26.90;63.90
24560;DHT22;12727;49.934;8.656;2023-07-29T14:36:30;26.90;62.10
24560;DHT22;12727;49.934;8.656;2023-07-29T14:38:56;26.90;62.30
24560;DHT22;12727;49.934;8.656;2023-07-29T14:41:21;27.00;63.00
24560;DHT22;12727;49.934;8.656;2023-07-29T14:43:47;27.10;62.70
24560;DHT22;12727;49.934;8.656;2023-07-29T14:46:13;27.10;64.40
24560;DHT22;12727;49.934;8.656;2023-07-29T14:48:39;27.20;63.20
24560;DHT22;12727;49.934;8.656;2023-07-29T14:51:04;27.10;64.10
24560;DHT22;12727;49.934;8.656;2023-07-29T14:53:30;26.90;64.30
24560;DHT22;12727;49.934;8.656;2023-07-29T14:55:56;26.60;64.60
24560;DHT22;12727;49.934;8.656;2023-07-29T14:58:21;26.70;65.40
24560;DHT22;12727;49.934;8.656;2023-07-29T15:00:47;26.70;66.40
24560;DHT22;12727;49.934;8.656;2023-07-29T15:03:13;26.70;66.70
24560;DHT22;12727;49.934;8.656;2023-07-29T15:05:38;26.60;65.40
24560;DHT22;12727;49.934;8.656;2023-07-29T15:08:06;26.70;66.00
24560;DHT22;12727;49.934;8.656;2023-07-29T15:10:31;26.60;66.70
24560;DHT22;12727;49.934;8.656;2023-07-29T15:12:57;26.40;65.80
24560;DHT22;12727;49.934;8.656;2023-07-29T15:15:22;26.30;66.50
24560;DHT22;12727;49.934;8.656;2023-07-29T15:17:48;26.20;67.50
24560;DHT22;12727;49.934;8.656;2023-07-29T15:20:13;26.20;67.00
24560;DHT22;12727;49.934;8.656;2023-07-29T15:22:39;26.20;67.90
24560;DHT22;12727;49.934;8.656;2023-07-29T15:25:05;26.20;67.20
24560;DHT22;12727;49.934;8.656;2023-07-29T15:27:30;26.20;67.30
24560;DHT22;12727;49.934;8.656;2023-07-29T15:29:56;26.40;67.00
24560;DHT22;12727;49.934;8.656;2023-07-29T15:32:22;26.60;67.30
24560;DHT22;12727;49.934;8.656;2023-07-29T15:34:49;26.50;67.00
24560;DHT22;12727;49.934;8.656;2023-07-29T15:37:14;26.30;66.70
24560;DHT22;12727;49.934;8.656;2023-07-29T15:39:40;26.20;66.40
24560;DHT22;12727;49.934;8.656;2023-07-29T15:42:06;26.30;66.70